Impacts TAF Board INFO
FOR SITUATIONAL AWARENESS. NOT TO BE USED FOR FLIGHT PLANNING PURPOSES.
IDs:

KLAX - Los Angeles Intl, CA, US

Issued at 1741 UTC 18 Feb 2018
Updated at 1806 UTC 18 Feb 2018
Potential Impact None Slight Moderate High
Time<<19/19Z 19/20Z 19/21Z 19/22Z 19/23Z 20/00Z 20/01Z 20/02Z 20/03Z 20/04Z 20/05Z 20/06Z 20/07Z
Type PRVL PRVL PRVL PRVL PRVL
VIS >6 >6 >6 >6 >6
CIG -- -- -- -- --
Cover SCT SCT SCT SCT SCT
FltCat VFR VFR VFR VFR VFR
WX -- -- -- -- --
WDir 310 310 310 310 310
WSpd 12 20 20 20 20
WGst -- 30 30 30 30

Raw TAF
KLAX 181741Z 1818/1924 26005KT P6SM FEW014 FEW026 SCT230
  FM181900 23006KT P6SM SCT010
  FM182100 25012KT P6SM FEW015
  FM190300 25008KT P6SM VCSH OVC012
  FM190900 30014KT P6SM VCSH BKN020
  FM191600 31012KT P6SM SCT025
  FM192000 31020G30KT P6SM SCT025


METAR Board
Radar Display
Forecast Discussion

FOR SITUATIONAL AWARENESS. NOT TO BE USED FOR FLIGHT PLANNING PURPOSES.